sensor_id;sensor_type;location;lat;lon;timestamp;P1;durP1;ratioP1;P2;durP2;ratioP2
59014;SDS011;44799;53.382;14.666;2022-09-29T00:01:12;4.05;;;2.40;;
59014;SDS011;44799;53.382;14.666;2022-09-29T00:03:38;2.90;;;1.50;;
59014;SDS011;44799;53.382;14.666;2022-09-29T00:06:10;3.55;;;1.88;;
59014;SDS011;44799;53.382;14.666;2022-09-29T00:08:41;1.83;;;1.08;;
59014;SDS011;44799;53.382;14.666;2022-09-29T00:11:07;3.72;;;2.50;;
59014;SDS011;44799;53.382;14.666;2022-09-29T00:13:34;2.90;;;1.50;;
59014;SDS011;44799;53.382;14.666;2022-09-29T00:16:00;2.45;;;1.55;;
59014;SDS011;44799;53.382;14.666;2022-09-29T00:18:28;3.30;;;2.05;;
59014;SDS011;44799;53.382;14.666;2022-09-29T00:20:55;1.83;;;1.63;;
59014;SDS011;44799;53.382;14.666;2022-09-29T00:23:25;2.50;;;2.05;;
59014;SDS011;44799;53.382;14.666;2022-09-29T00:26:05;3.25;;;1.88;;
59014;SDS011;44799;53.382;14.666;2022-09-29T00:28:34;4.28;;;2.70;;
59014;SDS011;44799;53.382;14.666;2022-09-29T00:31:01;3.83;;;2.22;;
59014;SDS011;44799;53.382;14.666;2022-09-29T00:33:29;3.35;;;2.13;;
59014;SDS011;44799;53.382;14.666;2022-09-29T00:36:00;2.30;;;1.98;;
59014;SDS011;44799;53.382;14.666;2022-09-29T00:38:27;4.38;;;2.85;;
59014;SDS011;44799;53.382;14.666;2022-09-29T00:40:54;5.20;;;2.85;;
59014;SDS011;44799;53.382;14.666;2022-09-29T00:43:44;4.10;;;2.40;;
59014;SDS011;44799;53.382;14.666;2022-09-29T00:46:12;3.38;;;2.10;;
59014;SDS011;44799;53.382;14.666;2022-09-29T00:48:41;3.63;;;2.45;;
59014;SDS011;44799;53.382;14.666;2022-09-29T00:51:08;3.03;;;2.08;;
59014;SDS011;44799;53.382;14.666;2022-09-29T00:53:34;2.30;;;1.65;;
59014;SDS011;44799;53.382;14.666;2022-09-29T00:56:04;3.00;;;2.60;;
59014;SDS011;44799;53.382;14.666;2022-09-29T00:58:39;3.10;;;2.40;;
59014;SDS011;44799;53.382;14.666;2022-09-29T01:01:19;4.32;;;2.80;;
59014;SDS011;44799;53.382;14.666;2022-09-29T01:03:46;4.85;;;2.00;;
59014;SDS011;44799;53.382;14.666;2022-09-29T01:06:18;4.57;;;2.38;;
59014;SDS011;44799;53.382;14.666;2022-09-29T01:08:50;5.18;;;2.33;;
59014;SDS011;44799;53.382;14.666;2022-09-29T01:11:26;3.10;;;2.38;;
59014;SDS011;44799;53.382;14.666;2022-09-29T01:13:54;3.30;;;1.75;;
59014;SDS011;44799;53.382;14.666;2022-09-29T01:16:25;2.90;;;1.83;;
59014;SDS011;44799;53.382;14.666;2022-09-29T01:18:51;3.38;;;2.33;;
59014;SDS011;44799;53.382;14.666;2022-09-29T01:26:47;5.20;;;3.13;;
59014;SDS011;44799;53.382;14.666;2022-09-29T01:37:46;3.80;;;1.92;;
59014;SDS011;44799;53.382;14.666;2022-09-29T01:40:26;2.45;;;1.70;;
59014;SDS011;44799;53.382;14.666;2022-09-29T01:43:10;6.20;;;2.47;;
59014;SDS011;44799;53.382;14.666;2022-09-29T01:45:59;2.30;;;1.98;;
59014;SDS011;44799;53.382;14.666;2022-09-29T01:48:30;6.53;;;2.53;;
59014;SDS011;44799;53.382;14.666;2022-09-29T01:51:03;4.03;;;2.03;;
59014;SDS011;44799;53.382;14.666;2022-09-29T01:53:35;4.32;;;2.72;;
59014;SDS011;44799;53.382;14.666;2022-09-29T01:56:14;3.30;;;2.83;;
59014;SDS011;44799;53.382;14.666;2022-09-29T01:59:13;3.47;;;2.70;;
59014;SDS011;44799;53.382;14.666;2022-09-29T02:01:49;3.17;;;2.42;;
59014;SDS011;44799;53.382;14.666;2022-09-29T02:04:26;6.82;;;2.70;;
59014;SDS011;44799;53.382;14.666;2022-09-29T02:06:59;4.47;;;2.60;;
59014;SDS011;44799;53.382;14.666;2022-09-29T02:09:29;3.27;;;2.30;;
59014;SDS011;44799;53.382;14.666;2022-09-29T02:12:04;4.57;;;3.05;;
59014;SDS011;44799;53.382;14.666;2022-09-29T02:14:35;5.68;;;3.13;;
59014;SDS011;44799;53.382;14.666;2022-09-29T02:17:21;3.15;;;1.50;;
59014;SDS011;44799;53.382;14.666;2022-09-29T02:19:59;5.35;;;2.78;;
59014;SDS011;44799;53.382;14.666;2022-09-29T02:22:25;4.25;;;2.13;;
59014;SDS011;44799;53.382;14.666;2022-09-29T02:24:51;6.05;;;3.42;;
59014;SDS011;44799;53.382;14.666;2022-09-29T02:27:23;4.40;;;2.47;;
59014;SDS011;44799;53.382;14.666;2022-09-29T02:29:51;4.72;;;2.72;;
59014;SDS011;44799;53.382;14.666;2022-09-29T02:32:17;6.32;;;3.20;;
59014;SDS011;44799;53.382;14.666;2022-09-29T02:34:45;5.80;;;2.97;;
59014;SDS011;44799;53.382;14.666;2022-09-29T02:48:42;4.80;;;2.60;;
59014;SDS011;44799;53.382;14.666;2022-09-29T02:51:28;6.85;;;3.08;;
59014;SDS011;44799;53.382;14.666;2022-09-29T02:59:55;5.63;;;3.33;;
59014;SDS011;44799;53.382;14.666;2022-09-29T03:02:33;5.20;;;2.55;;
59014;SDS011;44799;53.382;14.666;2022-09-29T03:05:00;4.65;;;3.08;;
59014;SDS011;44799;53.382;14.666;2022-09-29T03:07:27;5.25;;;2.65;;
59014;SDS011;44799;53.382;14.666;2022-09-29T03:09:53;4.10;;;2.88;;
59014;SDS011;44799;53.382;14.666;2022-09-29T03:12:19;4.60;;;2.78;;
59014;SDS011;44799;53.382;14.666;2022-09-29T03:14:45;5.40;;;3.08;;
59014;SDS011;44799;53.382;14.666;2022-09-29T03:17:11;4.80;;;2.88;;
59014;SDS011;44799;53.382;14.666;2022-09-29T03:19:36;5.75;;;4.20;;
59014;SDS011;44799;53.382;14.666;2022-09-29T03:22:02;6.22;;;3.38;;
59014;SDS011;44799;53.382;14.666;2022-09-29T03:24:29;5.38;;;3.58;;
59014;SDS011;44799;53.382;14.666;2022-09-29T03:26:55;9.32;;;4.00;;
59014;SDS011;44799;53.382;14.666;2022-09-29T03:29:21;5.18;;;2.83;;
59014;SDS011;44799;53.382;14.666;2022-09-29T03:31:47;6.57;;;4.30;;
59014;SDS011;44799;53.382;14.666;2022-09-29T03:34:13;16.95;;;3.50;;
59014;SDS011;44799;53.382;14.666;2022-09-29T03:36:39;6.22;;;3.35;;
59014;SDS011;44799;53.382;14.666;2022-09-29T03:39:08;7.00;;;3.50;;
59014;SDS011;44799;53.382;14.666;2022-09-29T03:41:33;6.13;;;3.53;;
59014;SDS011;44799;53.382;14.666;2022-09-29T03:43:59;6.85;;;4.53;;
59014;SDS011;44799;53.382;14.666;2022-09-29T03:46:25;5.65;;;3.72;;
59014;SDS011;44799;53.382;14.666;2022-09-29T03:48:51;5.88;;;3.85;;
59014;SDS011;44799;53.382;14.666;2022-09-29T03:51:17;6.18;;;2.72;;
59014;SDS011;44799;53.382;14.666;2022-09-29T03:53:43;8.02;;;3.97;;
59014;SDS011;44799;53.382;14.666;2022-09-29T03:56:09;5.63;;;3.85;;
59014;SDS011;44799;53.382;14.666;2022-09-29T03:58:35;6.63;;;4.28;;
59014;SDS011;44799;53.382;14.666;2022-09-29T04:01:01;6.60;;;3.30;;
59014;SDS011;44799;53.382;14.666;2022-09-29T04:03:27;6.70;;;3.40;;
59014;SDS011;44799;53.382;14.666;2022-09-29T04:05:53;7.28;;;3.60;;
59014;SDS011;44799;53.382;14.666;2022-09-29T04:08:19;7.15;;;3.80;;
59014;SDS011;44799;53.382;14.666;2022-09-29T04:10:45;5.65;;;3.60;;
59014;SDS011;44799;53.382;14.666;2022-09-29T04:13:12;6.45;;;4.10;;
59014;SDS011;44799;53.382;14.666;2022-09-29T04:15:38;8.13;;;3.40;;
59014;SDS011;44799;53.382;14.666;2022-09-29T04:18:04;7.82;;;3.58;;
59014;SDS011;44799;53.382;14.666;2022-09-29T04:20:31;7.10;;;3.50;;
59014;SDS011;44799;53.382;14.666;2022-09-29T04:22:57;8.02;;;3.95;;
59014;SDS011;44799;53.382;14.666;2022-09-29T04:25:24;4.32;;;2.28;;
59014;SDS011;44799;53.382;14.666;2022-09-29T04:27:50;7.00;;;3.30;;
59014;SDS011;44799;53.382;14.666;2022-09-29T04:30:16;8.18;;;3.70;;
59014;SDS011;44799;53.382;14.666;2022-09-29T04:32:42;8.25;;;4.03;;
59014;SDS011;44799;53.382;14.666;2022-09-29T04:35:09;7.55;;;3.20;;
59014;SDS011;44799;53.382;14.666;2022-09-29T04:37:35;10.10;;;4.18;;
59014;SDS011;44799;53.382;14.666;2022-09-29T04:40:02;7.35;;;3.13;;
59014;SDS011;44799;53.382;14.666;2022-09-29T04:42:30;8.23;;;3.67;;
59014;SDS011;44799;53.382;14.666;2022-09-29T04:44:56;8.07;;;3.97;;
59014;SDS011;44799;53.382;14.666;2022-09-29T04:47:22;8.13;;;4.15;;
59014;SDS011;44799;53.382;14.666;2022-09-29T04:49:47;6.05;;;3.35;;
59014;SDS011;44799;53.382;14.666;2022-09-29T04:52:13;7.20;;;4.10;;
59014;SDS011;44799;53.382;14.666;2022-09-29T04:54:39;7.43;;;4.05;;
59014;SDS011;44799;53.382;14.666;2022-09-29T04:57:06;6.97;;;3.53;;
59014;SDS011;44799;53.382;14.666;2022-09-29T04:59:32;9.27;;;3.47;;
59014;SDS011;44799;53.382;14.666;2022-09-29T05:01:58;5.35;;;3.58;;
59014;SDS011;44799;53.382;14.666;2022-09-29T05:04:24;3.03;;;2.20;;
59014;SDS011;44799;53.382;14.666;2022-09-29T05:06:51;5.78;;;3.38;;
59014;SDS011;44799;53.382;14.666;2022-09-29T05:09:19;7.80;;;3.95;;
59014;SDS011;44799;53.382;14.666;2022-09-29T05:11:45;7.47;;;3.88;;
59014;SDS011;44799;53.382;14.666;2022-09-29T05:14:11;8.32;;;3.83;;
59014;SDS011;44799;53.382;14.666;2022-09-29T05:16:37;8.02;;;3.97;;
59014;SDS011;44799;53.382;14.666;2022-09-29T05:19:03;10.50;;;4.30;;
59014;SDS011;44799;53.382;14.666;2022-09-29T05:21:29;6.20;;;3.70;;
59014;SDS011;44799;53.382;14.666;2022-09-29T05:23:55;8.25;;;4.00;;
59014;SDS011;44799;53.382;14.666;2022-09-29T05:26:21;7.35;;;3.65;;
59014;SDS011;44799;53.382;14.666;2022-09-29T05:28:47;9.43;;;3.70;;
59014;SDS011;44799;53.382;14.666;2022-09-29T05:31:13;7.13;;;3.58;;
59014;SDS011;44799;53.382;14.666;2022-09-29T05:33:40;6.28;;;2.88;;
59014;SDS011;44799;53.382;14.666;2022-09-29T05:36:07;7.18;;;3.55;;
59014;SDS011;44799;53.382;14.666;2022-09-29T05:38:35;7.65;;;2.78;;
59014;SDS011;44799;53.382;14.666;2022-09-29T05:41:02;7.47;;;4.32;;
59014;SDS011;44799;53.382;14.666;2022-09-29T05:43:34;5.47;;;3.13;;
59014;SDS011;44799;53.382;14.666;2022-09-29T05:46:00;5.95;;;3.78;;
59014;SDS011;44799;53.382;14.666;2022-09-29T05:48:30;8.48;;;4.15;;
59014;SDS011;44799;53.382;14.666;2022-09-29T05:50:57;8.00;;;3.60;;
59014;SDS011;44799;53.382;14.666;2022-09-29T05:53:24;6.18;;;3.08;;
59014;SDS011;44799;53.382;14.666;2022-09-29T05:55:50;6.88;;;3.35;;
59014;SDS011;44799;53.382;14.666;2022-09-29T05:58:16;7.63;;;3.67;;
59014;SDS011;44799;53.382;14.666;2022-09-29T06:00:42;6.65;;;3.50;;
59014;SDS011;44799;53.382;14.666;2022-09-29T06:03:08;13.48;;;5.07;;
59014;SDS011;44799;53.382;14.666;2022-09-29T06:05:36;12.23;;;4.93;;
59014;SDS011;44799;53.382;14.666;2022-09-29T06:08:03;8.27;;;3.55;;
59014;SDS011;44799;53.382;14.666;2022-09-29T06:10:29;7.53;;;3.65;;
59014;SDS011;44799;53.382;14.666;2022-09-29T06:12:56;8.60;;;3.88;;
59014;SDS011;44799;53.382;14.666;2022-09-29T06:15:22;7.47;;;2.95;;
59014;SDS011;44799;53.382;14.666;2022-09-29T06:17:57;4.30;;;2.63;;
59014;SDS011;44799;53.382;14.666;2022-09-29T06:20:24;6.47;;;2.17;;
59014;SDS011;44799;53.382;14.666;2022-09-29T06:22:53;6.22;;;3.10;;
59014;SDS011;44799;53.382;14.666;2022-09-29T06:25:19;5.72;;;3.53;;
59014;SDS011;44799;53.382;14.666;2022-09-29T06:27:45;6.97;;;3.55;;
59014;SDS011;44799;53.382;14.666;2022-09-29T06:30:12;6.15;;;3.05;;
59014;SDS011;44799;53.382;14.666;2022-09-29T06:32:38;5.22;;;2.60;;
59014;SDS011;44799;53.382;14.666;2022-09-29T06:35:04;5.75;;;2.60;;
59014;SDS011;44799;53.382;14.666;2022-09-29T06:37:50;5.97;;;2.88;;
59014;SDS011;44799;53.382;14.666;2022-09-29T06:40:19;10.75;;;4.40;;
59014;SDS011;44799;53.382;14.666;2022-09-29T06:42:47;7.80;;;3.38;;
59014;SDS011;44799;53.382;14.666;2022-09-29T06:45:14;1.48;;;1.35;;
59014;SDS011;44799;53.382;14.666;2022-09-29T06:47:40;7.55;;;2.63;;
59014;SDS011;44799;53.382;14.666;2022-09-29T06:50:06;6.80;;;3.80;;
59014;SDS011;44799;53.382;14.666;2022-09-29T06:52:33;6.50;;;2.60;;
59014;SDS011;44799;53.382;14.666;2022-09-29T06:54:59;8.73;;;3.83;;
59014;SDS011;44799;53.382;14.666;2022-09-29T06:57:25;9.15;;;4.07;;
59014;SDS011;44799;53.382;14.666;2022-09-29T06:59:51;5.07;;;3.25;;
59014;SDS011;44799;53.382;14.666;2022-09-29T07:02:17;7.18;;;3.70;;
59014;SDS011;44799;53.382;14.666;2022-09-29T07:04:43;7.25;;;4.30;;
59014;SDS011;44799;53.382;14.666;2022-09-29T07:07:09;8.65;;;4.50;;
59014;SDS011;44799;53.382;14.666;2022-09-29T07:09:35;9.23;;;3.30;;
59014;SDS011;44799;53.382;14.666;2022-09-29T07:12:01;7.85;;;4.15;;
59014;SDS011;44799;53.382;14.666;2022-09-29T07:14:26;7.28;;;3.88;;
59014;SDS011;44799;53.382;14.666;2022-09-29T07:16:52;5.57;;;2.47;;
59014;SDS011;44799;53.382;14.666;2022-09-29T07:19:18;7.00;;;3.17;;
59014;SDS011;44799;53.382;14.666;2022-09-29T07:21:45;8.93;;;3.90;;
59014;SDS011;44799;53.382;14.666;2022-09-29T07:24:11;9.35;;;4.10;;
59014;SDS011;44799;53.382;14.666;2022-09-29T07:26:37;8.85;;;4.38;;
59014;SDS011;44799;53.382;14.666;2022-09-29T07:29:03;7.82;;;4.00;;
59014;SDS011;44799;53.382;14.666;2022-09-29T07:31:29;10.93;;;4.22;;
59014;SDS011;44799;53.382;14.666;2022-09-29T07:33:55;9.57;;;4.15;;
59014;SDS011;44799;53.382;14.666;2022-09-29T07:36:21;5.00;;;3.63;;
59014;SDS011;44799;53.382;14.666;2022-09-29T07:38:48;13.25;;;5.30;;
59014;SDS011;44799;53.382;14.666;2022-09-29T07:41:16;8.85;;;3.63;;
59014;SDS011;44799;53.382;14.666;2022-09-29T07:43:43;8.05;;;3.97;;
59014;SDS011;44799;53.382;14.666;2022-09-29T07:46:09;11.05;;;4.25;;
59014;SDS011;44799;53.382;14.666;2022-09-29T07:48:36;7.88;;;3.70;;
59014;SDS011;44799;53.382;14.666;2022-09-29T07:51:06;10.07;;;5.03;;
59014;SDS011;44799;53.382;14.666;2022-09-29T07:53:39;10.25;;;5.28;;
59014;SDS011;44799;53.382;14.666;2022-09-29T07:56:07;13.70;;;5.05;;
59014;SDS011;44799;53.382;14.666;2022-09-29T07:58:36;11.52;;;5.10;;
59014;SDS011;44799;53.382;14.666;2022-09-29T08:01:03;11.70;;;5.20;;
59014;SDS011;44799;53.382;14.666;2022-09-29T08:03:31;13.50;;;5.90;;
59014;SDS011;44799;53.382;14.666;2022-09-29T08:05:57;11.02;;;5.57;;
59014;SDS011;44799;53.382;14.666;2022-09-29T08:08:24;10.65;;;5.57;;
59014;SDS011;44799;53.382;14.666;2022-09-29T08:10:50;10.88;;;5.40;;
59014;SDS011;44799;53.382;14.666;2022-09-29T08:13:16;16.30;;;6.05;;
59014;SDS011;44799;53.382;14.666;2022-09-29T08:15:42;17.08;;;6.53;;
59014;SDS011;44799;53.382;14.666;2022-09-29T08:18:08;17.23;;;6.45;;
59014;SDS011;44799;53.382;14.666;2022-09-29T08:20:34;14.02;;;5.53;;
59014;SDS011;44799;53.382;14.666;2022-09-29T08:23:01;12.85;;;5.97;;
59014;SDS011;44799;53.382;14.666;2022-09-29T08:25:27;15.45;;;6.85;;
59014;SDS011;44799;53.382;14.666;2022-09-29T08:27:53;19.92;;;6.80;;
59014;SDS011;44799;53.382;14.666;2022-09-29T08:30:19;26.42;;;8.20;;
59014;SDS011;44799;53.382;14.666;2022-09-29T08:32:54;17.55;;;7.63;;
59014;SDS011;44799;53.382;14.666;2022-09-29T08:35:20;14.05;;;6.38;;
59014;SDS011;44799;53.382;14.666;2022-09-29T08:37:46;15.43;;;6.82;;
59014;SDS011;44799;53.382;14.666;2022-09-29T08:40:12;12.65;;;6.13;;
59014;SDS011;44799;53.382;14.666;2022-09-29T08:45:36;17.10;;;6.68;;
59014;SDS011;44799;53.382;14.666;2022-09-29T08:48:09;16.15;;;6.43;;
59014;SDS011;44799;53.382;14.666;2022-09-29T08:50:43;14.30;;;6.35;;
59014;SDS011;44799;53.382;14.666;2022-09-29T08:53:31;13.35;;;6.60;;
59014;SDS011;44799;53.382;14.666;2022-09-29T08:56:04;25.05;;;9.57;;
59014;SDS011;44799;53.382;14.666;2022-09-29T08:58:34;15.40;;;7.95;;
59014;SDS011;44799;53.382;14.666;2022-09-29T09:01:07;19.23;;;6.85;;
59014;SDS011;44799;53.382;14.666;2022-09-29T09:09:24;17.42;;;8.27;;
59014;SDS011;44799;53.382;14.666;2022-09-29T09:17:56;15.23;;;6.88;;
59014;SDS011;44799;53.382;14.666;2022-09-29T09:20:44;17.88;;;6.95;;
59014;SDS011;44799;53.382;14.666;2022-09-29T09:26:00;16.80;;;6.90;;
59014;SDS011;44799;53.382;14.666;2022-09-29T09:28:29;12.30;;;6.45;;
59014;SDS011;44799;53.382;14.666;2022-09-29T09:31:09;17.50;;;7.28;;
59014;SDS011;44799;53.382;14.666;2022-09-29T09:33:58;16.23;;;6.95;;
59014;SDS011;44799;53.382;14.666;2022-09-29T09:36:32;15.40;;;6.43;;
59014;SDS011;44799;53.382;14.666;2022-09-29T09:41:36;11.18;;;6.70;;
59014;SDS011;44799;53.382;14.666;2022-09-29T09:44:05;13.52;;;7.05;;
59014;SDS011;44799;53.382;14.666;2022-09-29T09:47:20;11.98;;;5.82;;
59014;SDS011;44799;53.382;14.666;2022-09-29T09:49:55;12.63;;;6.30;;
59014;SDS011;44799;53.382;14.666;2022-09-29T09:55:05;14.98;;;7.28;;
59014;SDS011;44799;53.382;14.666;2022-09-29T10:03:27;14.82;;;6.65;;
59014;SDS011;44799;53.382;14.666;2022-09-29T10:05:54;10.45;;;5.25;;
59014;SDS011;44799;53.382;14.666;2022-09-29T10:08:22;14.23;;;6.25;;
59014;SDS011;44799;53.382;14.666;2022-09-29T10:10:50;16.88;;;7.03;;
59014;SDS011;44799;53.382;14.666;2022-09-29T10:13:17;13.73;;;6.30;;
59014;SDS011;44799;53.382;14.666;2022-09-29T10:23:57;13.48;;;5.90;;
59014;SDS011;44799;53.382;14.666;2022-09-29T10:26:27;10.10;;;5.38;;
59014;SDS011;44799;53.382;14.666;2022-09-29T10:29:01;7.63;;;4.43;;
59014;SDS011;44799;53.382;14.666;2022-09-29T10:31:41;9.23;;;4.85;;
59014;SDS011;44799;53.382;14.666;2022-09-29T10:34:21;13.23;;;5.72;;
59014;SDS011;44799;53.382;14.666;2022-09-29T10:39:38;10.37;;;4.77;;
59014;SDS011;44799;53.382;14.666;2022-09-29T10:42:21;10.18;;;4.55;;
59014;SDS011;44799;53.382;14.666;2022-09-29T10:44:50;7.63;;;3.70;;
59014;SDS011;44799;53.382;14.666;2022-09-29T10:47:25;7.00;;;3.53;;
59014;SDS011;44799;53.382;14.666;2022-09-29T10:52:43;8.07;;;3.40;;
59014;SDS011;44799;53.382;14.666;2022-09-29T10:55:20;6.75;;;3.63;;
59014;SDS011;44799;53.382;14.666;2022-09-29T10:57:52;6.10;;;3.90;;
59014;SDS011;44799;53.382;14.666;2022-09-29T11:00:24;9.10;;;4.95;;
59014;SDS011;44799;53.382;14.666;2022-09-29T11:02:50;8.68;;;3.63;;
59014;SDS011;44799;53.382;14.666;2022-09-29T11:05:20;5.68;;;3.67;;
59014;SDS011;44799;53.382;14.666;2022-09-29T11:07:48;5.45;;;3.35;;
59014;SDS011;44799;53.382;14.666;2022-09-29T11:15:43;2.58;;;1.77;;
59014;SDS011;44799;53.382;14.666;2022-09-29T11:18:18;5.72;;;3.45;;
59014;SDS011;44799;53.382;14.666;2022-09-29T11:20:48;5.43;;;3.33;;
59014;SDS011;44799;53.382;14.666;2022-09-29T11:23:37;5.63;;;3.28;;
59014;SDS011;44799;53.382;14.666;2022-09-29T11:26:22;6.45;;;3.22;;
59014;SDS011;44799;53.382;14.666;2022-09-29T11:38:11;5.43;;;3.65;;
59014;SDS011;44799;53.382;14.666;2022-09-29T11:49:34;5.68;;;3.55;;
59014;SDS011;44799;53.382;14.666;2022-09-29T11:57:33;5.88;;;3.72;;
59014;SDS011;44799;53.382;14.666;2022-09-29T12:00:12;8.57;;;3.95;;
59014;SDS011;44799;53.382;14.666;2022-09-29T12:14:05;5.20;;;3.58;;
59014;SDS011;44799;53.382;14.666;2022-09-29T12:16:32;8.30;;;3.35;;
59014;SDS011;44799;53.382;14.666;2022-09-29T12:19:13;8.05;;;4.13;;
59014;SDS011;44799;53.382;14.666;2022-09-29T12:21:43;8.50;;;3.92;;
59014;SDS011;44799;53.382;14.666;2022-09-29T12:24:31;7.22;;;3.85;;
59014;SDS011;44799;53.382;14.666;2022-09-29T12:27:02;5.35;;;3.65;;
59014;SDS011;44799;53.382;14.666;2022-09-29T12:29:35;4.90;;;3.22;;
59014;SDS011;44799;53.382;14.666;2022-09-29T12:32:08;6.18;;;3.58;;
59014;SDS011;44799;53.382;14.666;2022-09-29T12:51:48;4.18;;;2.95;;
59014;SDS011;44799;53.382;14.666;2022-09-29T12:56:25;3.38;;;2.97;;
59014;SDS011;44799;53.382;14.666;2022-09-29T12:59:03;3.88;;;2.65;;
59014;SDS011;44799;53.382;14.666;2022-09-29T13:01:35;4.10;;;2.40;;
59014;SDS011;44799;53.382;14.666;2022-09-29T13:09:50;4.57;;;2.78;;
59014;SDS011;44799;53.382;14.666;2022-09-29T13:16:02;5.80;;;3.50;;
59014;SDS011;44799;53.382;14.666;2022-09-29T13:18:43;5.05;;;1.98;;
59014;SDS011;44799;53.382;14.666;2022-09-29T13:21:44;7.20;;;2.88;;
59014;SDS011;44799;53.382;14.666;2022-09-29T13:29:55;7.22;;;4.20;;
59014;SDS011;44799;53.382;14.666;2022-09-29T13:32:26;5.82;;;3.38;;
59014;SDS011;44799;53.382;14.666;2022-09-29T13:34:54;5.40;;;3.55;;
59014;SDS011;44799;53.382;14.666;2022-09-29T13:37:24;5.68;;;3.42;;
59014;SDS011;44799;53.382;14.666;2022-09-29T13:40:03;4.97;;;2.88;;
59014;SDS011;44799;53.382;14.666;2022-09-29T13:47:46;3.00;;;2.17;;
59014;SDS011;44799;53.382;14.666;2022-09-29T14:00:55;11.02;;;4.70;;
59014;SDS011;44799;53.382;14.666;2022-09-29T14:03:31;7.05;;;3.08;;
59014;SDS011;44799;53.382;14.666;2022-09-29T14:06:15;3.60;;;2.38;;
59014;SDS011;44799;53.382;14.666;2022-09-29T14:08:48;4.43;;;2.85;;
59014;SDS011;44799;53.382;14.666;2022-09-29T14:14:41;3.95;;;2.38;;
59014;SDS011;44799;53.382;14.666;2022-09-29T14:20:02;4.68;;;2.40;;
59014;SDS011;44799;53.382;14.666;2022-09-29T14:27:41;2.75;;;2.40;;
59014;SDS011;44799;53.382;14.666;2022-09-29T14:33:01;1.35;;;0.98;;
59014;SDS011;44799;53.382;14.666;2022-09-29T14:35:34;2.83;;;1.92;;
59014;SDS011;44799;53.382;14.666;2022-09-29T14:38:03;4.03;;;2.40;;
59014;SDS011;44799;53.382;14.666;2022-09-29T14:40:32;5.50;;;3.10;;
59014;SDS011;44799;53.382;14.666;2022-09-29T14:55:30;5.13;;;3.08;;
59014;SDS011;44799;53.382;14.666;2022-09-29T14:58:46;4.45;;;2.88;;
59014;SDS011;44799;53.382;14.666;2022-09-29T15:01:19;3.15;;;2.22;;
59014;SDS011;44799;53.382;14.666;2022-09-29T15:03:56;3.90;;;2.30;;
59014;SDS011;44799;53.382;14.666;2022-09-29T15:06:49;5.53;;;2.00;;
59014;SDS011;44799;53.382;14.666;2022-09-29T15:09:20;3.33;;;2.42;;
59014;SDS011;44799;53.382;14.666;2022-09-29T15:11:51;4.10;;;2.67;;
59014;SDS011;44799;53.382;14.666;2022-09-29T15:17:06;4.60;;;2.53;;
59014;SDS011;44799;53.382;14.666;2022-09-29T15:28:02;3.63;;;2.58;;
59014;SDS011;44799;53.382;14.666;2022-09-29T15:30:28;3.13;;;2.38;;
59014;SDS011;44799;53.382;14.666;2022-09-29T15:33:29;3.50;;;2.42;;
59014;SDS011;44799;53.382;14.666;2022-09-29T15:35:56;3.38;;;1.92;;
59014;SDS011;44799;53.382;14.666;2022-09-29T15:38:41;2.28;;;1.92;;
59014;SDS011;44799;53.382;14.666;2022-09-29T15:43:41;4.78;;;2.63;;
59014;SDS011;44799;53.382;14.666;2022-09-29T15:46:15;3.63;;;1.75;;
59014;SDS011;44799;53.382;14.666;2022-09-29T15:49:03;3.03;;;2.33;;
59014;SDS011;44799;53.382;14.666;2022-09-29T15:51:30;4.43;;;2.53;;
59014;SDS011;44799;53.382;14.666;2022-09-29T15:53:56;4.45;;;2.38;;
59014;SDS011;44799;53.382;14.666;2022-09-29T15:56:25;4.03;;;2.97;;
59014;SDS011;44799;53.382;14.666;2022-09-29T15:58:51;4.28;;;2.63;;
59014;SDS011;44799;53.382;14.666;2022-09-29T16:01:18;3.55;;;2.67;;
59014;SDS011;44799;53.382;14.666;2022-09-29T16:03:47;4.28;;;2.47;;
59014;SDS011;44799;53.382;14.666;2022-09-29T16:06:34;3.97;;;2.25;;
59014;SDS011;44799;53.382;14.666;2022-09-29T16:09:02;2.83;;;2.25;;
59014;SDS011;44799;53.382;14.666;2022-09-29T16:11:31;3.50;;;2.88;;
59014;SDS011;44799;53.382;14.666;2022-09-29T16:14:03;4.82;;;2.75;;
59014;SDS011;44799;53.382;14.666;2022-09-29T16:16:43;6.18;;;3.50;;
59014;SDS011;44799;53.382;14.666;2022-09-29T16:21:49;6.22;;;3.72;;
59014;SDS011;44799;53.382;14.666;2022-09-29T16:24:17;10.85;;;3.83;;
59014;SDS011;44799;53.382;14.666;2022-09-29T16:26:45;5.72;;;3.70;;
59014;SDS011;44799;53.382;14.666;2022-09-29T16:31:52;9.15;;;4.15;;
59014;SDS011;44799;53.382;14.666;2022-09-29T16:36:48;4.78;;;3.60;;
59014;SDS011;44799;53.382;14.666;2022-09-29T16:39:25;5.65;;;4.28;;
59014;SDS011;44799;53.382;14.666;2022-09-29T16:42:23;6.55;;;4.43;;
59014;SDS011;44799;53.382;14.666;2022-09-29T16:44:51;8.18;;;4.43;;
59014;SDS011;44799;53.382;14.666;2022-09-29T16:47:21;9.55;;;4.97;;
59014;SDS011;44799;53.382;14.666;2022-09-29T16:50:05;6.57;;;4.80;;
59014;SDS011;44799;53.382;14.666;2022-09-29T16:52:44;8.73;;;4.78;;
59014;SDS011;44799;53.382;14.666;2022-09-29T17:00:27;7.53;;;4.10;;
59014;SDS011;44799;53.382;14.666;2022-09-29T17:02:54;7.88;;;4.75;;
59014;SDS011;44799;53.382;14.666;2022-09-29T17:05:27;8.32;;;5.53;;
59014;SDS011;44799;53.382;14.666;2022-09-29T17:08:00;7.95;;;5.10;;
59014;SDS011;44799;53.382;14.666;2022-09-29T17:10:28;8.20;;;5.10;;
59014;SDS011;44799;53.382;14.666;2022-09-29T17:12:55;6.38;;;4.80;;
59014;SDS011;44799;53.382;14.666;2022-09-29T17:15:22;8.23;;;4.50;;
59014;SDS011;44799;53.382;14.666;2022-09-29T17:17:49;5.68;;;3.55;;
59014;SDS011;44799;53.382;14.666;2022-09-29T17:20:17;6.65;;;4.45;;
59014;SDS011;44799;53.382;14.666;2022-09-29T17:22:44;5.45;;;3.70;;
59014;SDS011;44799;53.382;14.666;2022-09-29T17:25:13;6.35;;;3.38;;
59014;SDS011;44799;53.382;14.666;2022-09-29T17:27:39;5.45;;;3.75;;
59014;SDS011;44799;53.382;14.666;2022-09-29T17:30:26;7.93;;;4.05;;
59014;SDS011;44799;53.382;14.666;2022-09-29T17:32:53;9.70;;;4.40;;
59014;SDS011;44799;53.382;14.666;2022-09-29T17:35:22;13.05;;;6.22;;
59014;SDS011;44799;53.382;14.666;2022-09-29T17:38:09;8.10;;;5.25;;
59014;SDS011;44799;53.382;14.666;2022-09-29T17:40:55;12.57;;;6.97;;
59014;SDS011;44799;53.382;14.666;2022-09-29T17:43:22;9.93;;;6.60;;
59014;SDS011;44799;53.382;14.666;2022-09-29T17:45:48;9.07;;;5.82;;
59014;SDS011;44799;53.382;14.666;2022-09-29T17:48:15;9.38;;;5.72;;
59014;SDS011;44799;53.382;14.666;2022-09-29T17:50:44;7.88;;;5.47;;
59014;SDS011;44799;53.382;14.666;2022-09-29T17:53:12;8.25;;;5.00;;
59014;SDS011;44799;53.382;14.666;2022-09-29T17:55:39;9.13;;;4.25;;
59014;SDS011;44799;53.382;14.666;2022-09-29T17:58:06;9.48;;;5.38;;
59014;SDS011;44799;53.382;14.666;2022-09-29T18:00:33;9.05;;;5.03;;
59014;SDS011;44799;53.382;14.666;2022-09-29T18:03:07;6.90;;;4.53;;
59014;SDS011;44799;53.382;14.666;2022-09-29T18:05:35;7.15;;;4.47;;
59014;SDS011;44799;53.382;14.666;2022-09-29T18:08:03;5.75;;;3.53;;
59014;SDS011;44799;53.382;14.666;2022-09-29T18:10:34;7.07;;;4.22;;
59014;SDS011;44799;53.382;14.666;2022-09-29T18:13:06;6.68;;;4.47;;
59014;SDS011;44799;53.382;14.666;2022-09-29T18:15:33;6.68;;;4.20;;
59014;SDS011;44799;53.382;14.666;2022-09-29T18:18:01;11.40;;;5.38;;
59014;SDS011;44799;53.382;14.666;2022-09-29T18:20:29;11.93;;;5.88;;
59014;SDS011;44799;53.382;14.666;2022-09-29T18:22:56;9.80;;;5.75;;
59014;SDS011;44799;53.382;14.666;2022-09-29T18:25:26;12.18;;;6.20;;
59014;SDS011;44799;53.382;14.666;2022-09-29T18:27:53;10.40;;;5.72;;